Ever Lucky — 3FAE4 — position and weather

sailwx.info

Track history (hours):
 
Tides and Currents Weather Stations Pressure Air Temp Water Temp Dewpoint Dewpoint Depression Visibility Wind Speed Wind Dir Waves Ship Positions

Ever Lucky

Last reported at 2018-Jul-20 12:26 UTC. Time now 2018-Jul-20 23:38 UTC.
Position N 36°36' W 075°34'.

Length 335 m; draft 10.4 m.

Type: Ship (hazmat cat B). MMSI: 356407000.

Date/timePositionNaut miles runAvg speedWind from/ knotsBaromVisibWave heightAir tempDewpointWater temp
2018-Jul-20 12:26N 36°36' W 075°34'716.4
2018-Jul-20 12:00N 36°42' W 075°39'1916.4
2018-Jul-20 10:51N 36°55' W 075°56'412.1
2018-Jul-20 10:30N 36°57' W 076°01'1414.5
2018-Jul-20 09:34N 37°00' W 076°17'116.1
2018-Jul-20 09:30N 36°60' W 076°18'5 9.5
2018-Jul-20 09:00N 36°55' W 076°20'1 1.1
2018-Jul-20 08:24N 36°55' W 076°20'0 0.0
2018-Jul-20 07:54N 36°55' W 076°20'0 0.0
2018-Jul-20 07:30N 36°55' W 076°20'0 0.0
2018-Jul-20 07:00N 36°55' W 076°20'0 0.0
2018-Jul-20 04:36N 36°55' W 076°20'0 0.0
2018-Jul-20 03:36N 36°55' W 076°20'0 0.0
2018-Jul-20 03:30N 36°55' W 076°20'0 0.0
2018-Jul-20 03:00N 36°55' W 076°20'0 0.0
2018-Jul-20 02:30N 36°55' W 076°20'0 0.0
2018-Jul-20 02:00N 36°55' W 076°20'0 0.0
2018-Jul-20 01:30N 36°55' W 076°20'0 0.0
2018-Jul-20 01:00N 36°55' W 076°20'0 0.0
2018-Jul-20 00:24N 36°55' W 076°20'0 0.0
2018-Jul-20 00:00N 36°55' W 076°20'0 0.0
2018-Jul-19 23:30N 36°55' W 076°20'0 0.0
2018-Jul-19 23:00N 36°55' W 076°20'0 0.0
2018-Jul-19 22:30N 36°55' W 076°20'0 0.0
2018-Jul-19 21:54N 36°55' W 076°20'0 0.0
2018-Jul-19 21:24N 36°55' W 076°20'0 0.0
2018-Jul-19 21:00N 36°55' W 076°20'0 0.0
2018-Jul-19 20:30N 36°55' W 076°20'0 0.0
2018-Jul-19 20:00N 36°55' W 076°20'0 0.0
2018-Jul-19 19:30N 36°55' W 076°20'0 0.0
2018-Jul-19 18:57N 36°55' W 076°20'0 0.0
2018-Jul-19 18:30N 36°55' W 076°20'0 0.0
2018-Jul-19 17:49N 36°55' W 076°20'0 0.0
2018-Jul-19 17:29N 36°55' W 076°20'0 0.0
2018-Jul-19 16:59N 36°55' W 076°20'0 0.0
2018-Jul-19 16:29N 36°55' W 076°20'0 0.0
2018-Jul-19 15:59N 36°55' W 076°20'0 0.0
2018-Jul-19 15:26N 36°55' W 076°20'0 0.0
2018-Jul-19 14:59N 36°55' W 076°20'0 0.0
2018-Jul-19 13:59N 36°55' W 076°20'0 0.0
2018-Jul-19 13:29N 36°55' W 076°20'0 0.0
2018-Jul-19 12:41N 36°55' W 076°20'0 0.0
2018-Jul-19 12:29N 36°55' W 076°20'0 0.0
2018-Jul-19 11:59N 36°55' W 076°20'0 0.0
2018-Jul-19 11:29N 36°55' W 076°20'0 0.0
2018-Jul-19 10:56N 36°55' W 076°20'0 0.0
2018-Jul-19 10:29N 36°55' W 076°20'0 0.0
2018-Jul-19 09:59N 36°55' W 076°20'0 0.0
2018-Jul-19 09:29N 36°55' W 076°20'0 0.0
2018-Jul-19 08:59N 36°55' W 076°20'0 0.0
2018-Jul-19 08:29N 36°55' W 076°20'0 0.9
2018-Jul-19 08:00N 36°55' W 076°20'2 4.7
2018-Jul-19 07:30N 36°57' W 076°20'611.6
2018-Jul-19 07:00N 37°00' W 076°14'916.9
2018-Jul-19 06:29N 36°58' W 076°04'7611.6
2018-Jul-18 23:54N 37°50' W 074°53'9515.6
2018-Jul-18 17:49N 39°14' W 073°57'1018.2
2018-Jul-18 17:16N 39°24' W 073°56'619.7
2018-Jul-18 16:59N 39°30' W 073°55'1019.7
2018-Jul-18 16:30N 39°39' W 073°53'1019.6
2018-Jul-18 16:00N 39°49' W 073°51'1019.4
2018-Jul-18 15:30N 39°59' W 073°51'2917.3
2018-Jul-18 13:49N 40°28' W 073°51'513.8
2018-Jul-18 13:28N 40°30' W 073°56'613.1
2018-Jul-18 13:00N 40°34' W 074°02'510.3
2018-Jul-18 12:31N 40°39' W 074°04'3 6.0
2018-Jul-18 12:01N 40°39' W 074°08'2 4.1
2018-Jul-18 11:31N 40°41' W 074°08'0 0.1
2018-Jul-18 10:29N 40°41' W 074°09'0 0.0
2018-Jul-18 09:59N 40°41' W 074°09'0 0.0
2018-Jul-18 09:29N 40°41' W 074°09'0 0.0
2018-Jul-18 08:59N 40°41' W 074°09'0 0.0
2018-Jul-18 08:29N 40°41' W 074°09'0 0.0
2018-Jul-18 07:59N 40°41' W 074°09'0 0.0
2018-Jul-18 07:29N 40°41' W 074°09'0 0.0
2018-Jul-18 06:59N 40°41' W 074°09'0 0.0
2018-Jul-18 06:29N 40°41' W 074°09'0 0.0
2018-Jul-18 05:59N 40°41' W 074°09'0 0.0
2018-Jul-18 05:29N 40°41' W 074°09'0 0.0
2018-Jul-18 04:59N 40°41' W 074°09'0 0.0
2018-Jul-18 04:29N 40°41' W 074°09'0 0.0
2018-Jul-18 03:59N 40°41' W 074°09'0 0.0
2018-Jul-18 03:29N 40°41' W 074°09'0 0.0
2018-Jul-18 02:56N 40°41' W 074°09'0 0.0
2018-Jul-18 02:29N 40°41' W 074°09'0 0.0
2018-Jul-18 01:59N 40°41' W 074°09'0 0.0
2018-Jul-18 01:29N 40°41' W 074°09'0 0.0
2018-Jul-18 00:59N 40°41' W 074°09'0 0.0
2018-Jul-18 00:29N 40°41' W 074°09'0 0.0
2018-Jul-17 23:59N 40°41' W 074°09'0 0.0
2018-Jul-17 23:23N 40°41' W 074°09'0 0.0
2018-Jul-17 22:56N 40°41' W 074°09'0 0.0
2018-Jul-17 22:29N 40°41' W 074°09'0 0.0
2018-Jul-17 21:59N 40°41' W 074°09'0 0.0
2018-Jul-17 21:29N 40°41' W 074°09'0 0.0
2018-Jul-17 20:59N 40°41' W 074°09'0 0.0
2018-Jul-17 20:29N 40°41' W 074°09'0 0.0
2018-Jul-17 19:59N 40°41' W 074°08'0 0.0
2018-Jul-17 19:29N 40°41' W 074°09'0 0.0
2018-Jul-17 18:59N 40°41' W 074°09'0 0.0
2018-Jul-17 18:29N 40°41' W 074°09'0 0.0
2018-Jul-17 17:59N 40°41' W 074°09'0 0.0
2018-Jul-17 17:29N 40°41' W 074°09'0 0.0
2018-Jul-17 16:59N 40°41' W 074°09'0 0.0
2018-Jul-17 16:29N 40°41' W 074°09'0 0.0
2018-Jul-17 15:59N 40°41' W 074°09'0 0.0
2018-Jul-17 15:26N 40°41' W 074°09'0 0.0
2018-Jul-17 14:56N 40°41' W 074°09'0 0.0
2018-Jul-17 14:29N 40°41' W 074°09'0 0.0
2018-Jul-17 13:59N 40°41' W 074°09'0 0.0
2018-Jul-17 13:29N 40°41' W 074°09'0 0.0
2018-Jul-17 12:59N 40°41' W 074°09'0 0.0
2018-Jul-17 12:29N 40°41' W 074°09'0 0.0
2018-Jul-17 11:59N 40°41' W 074°09'0 0.0
2018-Jul-17 11:29N 40°41' W 074°09'0 0.0
2018-Jul-17 10:59N 40°41' W 074°09'0 0.0
2018-Jul-17 10:29N 40°41' W 074°09'0 0.0
2018-Jul-17 09:59N 40°41' W 074°09'0 0.0
2018-Jul-17 09:29N 40°41' W 074°09'0 0.0
2018-Jul-17 08:59N 40°41' W 074°09'0 0.0
2018-Jul-17 08:29N 40°41' W 074°09'0 0.0
2018-Jul-17 07:59N 40°41' W 074°09'0 0.0
2018-Jul-17 07:29N 40°41' W 074°09'0 0.0
2018-Jul-17 06:59N 40°41' W 074°09'0 0.0
2018-Jul-17 06:29N 40°41' W 074°09'0 0.0
2018-Jul-17 05:59N 40°41' W 074°09'0 0.0
2018-Jul-17 05:29N 40°41' W 074°09'0 0.0
2018-Jul-17 04:59N 40°41' W 074°09'0 0.0
2018-Jul-17 04:29N 40°41' W 074°09'0 0.0
2018-Jul-17 03:59N 40°41' W 074°09'0 0.0
2018-Jul-17 03:29N 40°41' W 074°09'0 0.0
2018-Jul-17 02:59N 40°41' W 074°09'0 0.0
2018-Jul-17 02:29N 40°41' W 074°09'0 0.0
2018-Jul-17 01:59N 40°41' W 074°09'0 0.0
2018-Jul-17 01:29N 40°41' W 074°09'0 0.0
2018-Jul-17 00:59N 40°41' W 074°09'0 0.0
2018-Jul-17 00:29N 40°41' W 074°09'0 0.0
2018-Jul-16 23:29N 40°41' W 074°09'0 0.0
2018-Jul-16 22:59N 40°41' W 074°09'0 0.0
2018-Jul-16 22:29N 40°41' W 074°09'0 0.0
2018-Jul-16 21:59N 40°41' W 074°09'0 0.0
2018-Jul-16 21:29N 40°41' W 074°09'0 0.0
2018-Jul-16 20:59N 40°41' W 074°09'0 0.0
2018-Jul-16 20:29N 40°41' W 074°09'0 0.0
2018-Jul-16 19:59N 40°41' W 074°09'0 0.0
2018-Jul-16 19:29N 40°41' W 074°09'0 0.0
2018-Jul-16 18:56N 40°41' W 074°09'0 0.0
2018-Jul-16 18:29N 40°41' W 074°09'0 0.0
2018-Jul-16 17:59N 40°41' W 074°09'0 0.0
2018-Jul-16 17:29N 40°41' W 074°09'0 0.0
2018-Jul-16 16:59N 40°41' W 074°09'0 0.0
2018-Jul-16 16:29N 40°41' W 074°09'0 0.0
2018-Jul-16 15:59N 40°41' W 074°09'0 0.0
2018-Jul-16 15:29N 40°41' W 074°09'0 0.0
2018-Jul-16 14:59N 40°41' W 074°09'0 0.0
2018-Jul-16 14:29N 40°41' W 074°09'0 0.0
2018-Jul-16 13:59N 40°41' W 074°09'0 0.0
2018-Jul-16 13:29N 40°41' W 074°09'0 0.0
2018-Jul-16 12:56N 40°41' W 074°09'0 0.0
2018-Jul-16 12:29N 40°41' W 074°09'0 0.0
2018-Jul-16 11:59N 40°41' W 074°09'0 0.0
2018-Jul-16 11:29N 40°41' W 074°09'0 0.0
2018-Jul-16 11:00N 40°41' W 074°09'0 0.6
2018-Jul-16 10:31N 40°40' W 074°08'2 3.8
2018-Jul-16 10:01N 40°39' W 074°09'2 4.9
2018-Jul-16 09:30N 40°39' W 074°06'3 5.0
2018-Jul-16 09:00N 40°37' W 074°03'3 6.5
2018-Jul-16 08:31N 40°34' W 074°02'5 9.9
2018-Jul-16 08:01N 40°30' W 073°58'611.0
2018-Jul-16 07:30N 40°28' W 073°51'4 8.7
2018-Jul-16 07:00N 40°27' W 073°46'611.4
2018-Jul-16 06:30N 40°27' W 073°38'2 3.7
2018-Jul-16 06:00N 40°27' W 073°36'612.5
2018-Jul-16 05:31N 40°28' W 073°28'814.9
2018-Jul-16 05:00N 40°29' W 073°18'3914.8
2018-Jul-16 02:24N 40°30' W 072°27'1414.7
2018-Jul-16 01:26N 40°30' W 072°09'  
2018-Jul-13 12:00N 44°00' W 049°06'42817.9 270 / 221027.0 0.5 18.014.610.0
2018-Jul-12 12:00N 46°30' W 039°36'22418.6 200 / 181033.0 0.3 21.019.420.0
2018-Jul-12 00:00N 47°24' W 034°18'   270 / 171035.0 1.1 18.016.318.0
Track history (hours):
 
Tides and Currents Weather Stations Pressure Air Temp Water Temp Dewpoint Dewpoint Depression Visibility Wind Speed Wind Dir Waves Ship Positions

Ever Lucky

Last reported at 2018-Jul-20 12:26 UTC. Time now 2018-Jul-20 23:38 UTC.
Position N 36°36' W 075°34'.

Length 335 m; draft 10.4 m.

Type: Ship (hazmat cat B). MMSI: 356407000.

Date/timePositionNaut miles runAvg speedWind from/ knotsBaromVisibWave heightAir tempDewpointWater temp
2018-Jul-20 12:26N 36°36' W 075°34'716.4
2018-Jul-20 12:00N 36°42' W 075°39'1916.4
2018-Jul-20 10:51N 36°55' W 075°56'412.1
2018-Jul-20 10:30N 36°57' W 076°01'1414.5
2018-Jul-20 09:34N 37°00' W 076°17'116.1
2018-Jul-20 09:30N 36°60' W 076°18'5 9.5
2018-Jul-20 09:00N 36°55' W 076°20'1 1.1
2018-Jul-20 08:24N 36°55' W 076°20'0 0.0
2018-Jul-20 07:54N 36°55' W 076°20'0 0.0
2018-Jul-20 07:30N 36°55' W 076°20'0 0.0
2018-Jul-20 07:00N 36°55' W 076°20'0 0.0
2018-Jul-20 04:36N 36°55' W 076°20'0 0.0
2018-Jul-20 03:36N 36°55' W 076°20'0 0.0
2018-Jul-20 03:30N 36°55' W 076°20'0 0.0
2018-Jul-20 03:00N 36°55' W 076°20'0 0.0
2018-Jul-20 02:30N 36°55' W 076°20'0 0.0
2018-Jul-20 02:00N 36°55' W 076°20'0 0.0
2018-Jul-20 01:30N 36°55' W 076°20'0 0.0
2018-Jul-20 01:00N 36°55' W 076°20'0 0.0
2018-Jul-20 00:24N 36°55' W 076°20'0 0.0
2018-Jul-20 00:00N 36°55' W 076°20'0 0.0
2018-Jul-19 23:30N 36°55' W 076°20'0 0.0
2018-Jul-19 23:00N 36°55' W 076°20'0 0.0
2018-Jul-19 22:30N 36°55' W 076°20'0 0.0
2018-Jul-19 21:54N 36°55' W 076°20'0 0.0
2018-Jul-19 21:24N 36°55' W 076°20'0 0.0
2018-Jul-19 21:00N 36°55' W 076°20'0 0.0
2018-Jul-19 20:30N 36°55' W 076°20'0 0.0
2018-Jul-19 20:00N 36°55' W 076°20'0 0.0
2018-Jul-19 19:30N 36°55' W 076°20'0 0.0
2018-Jul-19 18:57N 36°55' W 076°20'0 0.0
2018-Jul-19 18:30N 36°55' W 076°20'0 0.0
2018-Jul-19 17:49N 36°55' W 076°20'0 0.0
2018-Jul-19 17:29N 36°55' W 076°20'0 0.0
2018-Jul-19 16:59N 36°55' W 076°20'0 0.0
2018-Jul-19 16:29N 36°55' W 076°20'0 0.0
2018-Jul-19 15:59N 36°55' W 076°20'0 0.0
2018-Jul-19 15:26N 36°55' W 076°20'0 0.0
2018-Jul-19 14:59N 36°55' W 076°20'0 0.0
2018-Jul-19 13:59N 36°55' W 076°20'0 0.0
2018-Jul-19 13:29N 36°55' W 076°20'0 0.0
2018-Jul-19 12:41N 36°55' W 076°20'0 0.0
2018-Jul-19 12:29N 36°55' W 076°20'0 0.0
2018-Jul-19 11:59N 36°55' W 076°20'0 0.0
2018-Jul-19 11:29N 36°55' W 076°20'0 0.0
2018-Jul-19 10:56N 36°55' W 076°20'0 0.0
2018-Jul-19 10:29N 36°55' W 076°20'0 0.0
2018-Jul-19 09:59N 36°55' W 076°20'0 0.0
2018-Jul-19 09:29N 36°55' W 076°20'0 0.0
2018-Jul-19 08:59N 36°55' W 076°20'0 0.0
2018-Jul-19 08:29N 36°55' W 076°20'0 0.9
2018-Jul-19 08:00N 36°55' W 076°20'2 4.7
2018-Jul-19 07:30N 36°57' W 076°20'611.6
2018-Jul-19 07:00N 37°00' W 076°14'916.9
2018-Jul-19 06:29N 36°58' W 076°04'7611.6
2018-Jul-18 23:54N 37°50' W 074°53'9515.6
2018-Jul-18 17:49N 39°14' W 073°57'1018.2
2018-Jul-18 17:16N 39°24' W 073°56'619.7
2018-Jul-18 16:59N 39°30' W 073°55'1019.7
2018-Jul-18 16:30N 39°39' W 073°53'1019.6
2018-Jul-18 16:00N 39°49' W 073°51'1019.4
2018-Jul-18 15:30N 39°59' W 073°51'2917.3
2018-Jul-18 13:49N 40°28' W 073°51'513.8
2018-Jul-18 13:28N 40°30' W 073°56'613.1
2018-Jul-18 13:00N 40°34' W 074°02'510.3
2018-Jul-18 12:31N 40°39' W 074°04'3 6.0
2018-Jul-18 12:01N 40°39' W 074°08'2 4.1
2018-Jul-18 11:31N 40°41' W 074°08'0 0.1
2018-Jul-18 10:29N 40°41' W 074°09'0 0.0
2018-Jul-18 09:59N 40°41' W 074°09'0 0.0
2018-Jul-18 09:29N 40°41' W 074°09'0 0.0
2018-Jul-18 08:59N 40°41' W 074°09'0 0.0
2018-Jul-18 08:29N 40°41' W 074°09'0 0.0
2018-Jul-18 07:59N 40°41' W 074°09'0 0.0
2018-Jul-18 07:29N 40°41' W 074°09'0 0.0
2018-Jul-18 06:59N 40°41' W 074°09'0 0.0
2018-Jul-18 06:29N 40°41' W 074°09'0 0.0
2018-Jul-18 05:59N 40°41' W 074°09'0 0.0
2018-Jul-18 05:29N 40°41' W 074°09'0 0.0
2018-Jul-18 04:59N 40°41' W 074°09'0 0.0
2018-Jul-18 04:29N 40°41' W 074°09'0 0.0
2018-Jul-18 03:59N 40°41' W 074°09'0 0.0
2018-Jul-18 03:29N 40°41' W 074°09'0 0.0
2018-Jul-18 02:56N 40°41' W 074°09'0 0.0
2018-Jul-18 02:29N 40°41' W 074°09'0 0.0
2018-Jul-18 01:59N 40°41' W 074°09'0 0.0
2018-Jul-18 01:29N 40°41' W 074°09'0 0.0
2018-Jul-18 00:59N 40°41' W 074°09'0 0.0
2018-Jul-18 00:29N 40°41' W 074°09'0 0.0
2018-Jul-17 23:59N 40°41' W 074°09'0 0.0
2018-Jul-17 23:23N 40°41' W 074°09'0 0.0
2018-Jul-17 22:56N 40°41' W 074°09'0 0.0
2018-Jul-17 22:29N 40°41' W 074°09'0 0.0
2018-Jul-17 21:59N 40°41' W 074°09'0 0.0
2018-Jul-17 21:29N 40°41' W 074°09'0 0.0
2018-Jul-17 20:59N 40°41' W 074°09'0 0.0
2018-Jul-17 20:29N 40°41' W 074°09'0 0.0
2018-Jul-17 19:59N 40°41' W 074°08'0 0.0
2018-Jul-17 19:29N 40°41' W 074°09'0 0.0
2018-Jul-17 18:59N 40°41' W 074°09'0 0.0
2018-Jul-17 18:29N 40°41' W 074°09'0 0.0
2018-Jul-17 17:59N 40°41' W 074°09'0 0.0
2018-Jul-17 17:29N 40°41' W 074°09'0 0.0
2018-Jul-17 16:59N 40°41' W 074°09'0 0.0
2018-Jul-17 16:29N 40°41' W 074°09'0 0.0
2018-Jul-17 15:59N 40°41' W 074°09'0 0.0
2018-Jul-17 15:26N 40°41' W 074°09'0 0.0
2018-Jul-17 14:56N 40°41' W 074°09'0 0.0
2018-Jul-17 14:29N 40°41' W 074°09'0 0.0
2018-Jul-17 13:59N 40°41' W 074°09'0 0.0
2018-Jul-17 13:29N 40°41' W 074°09'0 0.0
2018-Jul-17 12:59N 40°41' W 074°09'0 0.0
2018-Jul-17 12:29N 40°41' W 074°09'0 0.0
2018-Jul-17 11:59N 40°41' W 074°09'0 0.0
2018-Jul-17 11:29N 40°41' W 074°09'0 0.0
2018-Jul-17 10:59N 40°41' W 074°09'0 0.0
2018-Jul-17 10:29N 40°41' W 074°09'0 0.0
2018-Jul-17 09:59N 40°41' W 074°09'0 0.0
2018-Jul-17 09:29N 40°41' W 074°09'0 0.0
2018-Jul-17 08:59N 40°41' W 074°09'0 0.0
2018-Jul-17 08:29N 40°41' W 074°09'0 0.0
2018-Jul-17 07:59N 40°41' W 074°09'0 0.0
2018-Jul-17 07:29N 40°41' W 074°09'0 0.0
2018-Jul-17 06:59N 40°41' W 074°09'0 0.0
2018-Jul-17 06:29N 40°41' W 074°09'0 0.0
2018-Jul-17 05:59N 40°41' W 074°09'0 0.0
2018-Jul-17 05:29N 40°41' W 074°09'0 0.0
2018-Jul-17 04:59N 40°41' W 074°09'0 0.0
2018-Jul-17 04:29N 40°41' W 074°09'0 0.0
2018-Jul-17 03:59N 40°41' W 074°09'0 0.0
2018-Jul-17 03:29N 40°41' W 074°09'0 0.0
2018-Jul-17 02:59N 40°41' W 074°09'0 0.0
2018-Jul-17 02:29N 40°41' W 074°09'0 0.0
2018-Jul-17 01:59N 40°41' W 074°09'0 0.0
2018-Jul-17 01:29N 40°41' W 074°09'0 0.0
2018-Jul-17 00:59N 40°41' W 074°09'0 0.0
2018-Jul-17 00:29N 40°41' W 074°09'0 0.0
2018-Jul-16 23:29N 40°41' W 074°09'0 0.0
2018-Jul-16 22:59N 40°41' W 074°09'0 0.0
2018-Jul-16 22:29N 40°41' W 074°09'0 0.0
2018-Jul-16 21:59N 40°41' W 074°09'0 0.0
2018-Jul-16 21:29N 40°41' W 074°09'0 0.0
2018-Jul-16 20:59N 40°41' W 074°09'0 0.0
2018-Jul-16 20:29N 40°41' W 074°09'0 0.0
2018-Jul-16 19:59N 40°41' W 074°09'0 0.0
2018-Jul-16 19:29N 40°41' W 074°09'0 0.0
2018-Jul-16 18:56N 40°41' W 074°09'0 0.0
2018-Jul-16 18:29N 40°41' W 074°09'0 0.0
2018-Jul-16 17:59N 40°41' W 074°09'0 0.0
2018-Jul-16 17:29N 40°41' W 074°09'0 0.0
2018-Jul-16 16:59N 40°41' W 074°09'0 0.0
2018-Jul-16 16:29N 40°41' W 074°09'0 0.0
2018-Jul-16 15:59N 40°41' W 074°09'0 0.0
2018-Jul-16 15:29N 40°41' W 074°09'0 0.0
2018-Jul-16 14:59N 40°41' W 074°09'0 0.0
2018-Jul-16 14:29N 40°41' W 074°09'0 0.0
2018-Jul-16 13:59N 40°41' W 074°09'0 0.0
2018-Jul-16 13:29N 40°41' W 074°09'0 0.0
2018-Jul-16 12:56N 40°41' W 074°09'0 0.0
2018-Jul-16 12:29N 40°41' W 074°09'0 0.0
2018-Jul-16 11:59N 40°41' W 074°09'0 0.0
2018-Jul-16 11:29N 40°41' W 074°09'0 0.0
2018-Jul-16 11:00N 40°41' W 074°09'0 0.6
2018-Jul-16 10:31N 40°40' W 074°08'2 3.8
2018-Jul-16 10:01N 40°39' W 074°09'2 4.9
2018-Jul-16 09:30N 40°39' W 074°06'3 5.0
2018-Jul-16 09:00N 40°37' W 074°03'3 6.5
2018-Jul-16 08:31N 40°34' W 074°02'5 9.9
2018-Jul-16 08:01N 40°30' W 073°58'611.0
2018-Jul-16 07:30N 40°28' W 073°51'4 8.7
2018-Jul-16 07:00N 40°27' W 073°46'611.4
2018-Jul-16 06:30N 40°27' W 073°38'2 3.7
2018-Jul-16 06:00N 40°27' W 073°36'612.5
2018-Jul-16 05:31N 40°28' W 073°28'814.9
2018-Jul-16 05:00N 40°29' W 073°18'3914.8
2018-Jul-16 02:24N 40°30' W 072°27'1414.7
2018-Jul-16 01:26N 40°30' W 072°09'  
2018-Jul-13 12:00N 44°00' W 049°06'42817.9 270 / 221027.0 0.5 18.014.610.0
2018-Jul-12 12:00N 46°30' W 039°36'22418.6 200 / 181033.0 0.3 21.019.420.0
2018-Jul-12 00:00N 47°24' W 034°18'   270 / 171035.0 1.1 18.016.318.0

Dump ship's entire track history